Time;durP1;ratioP1;P1;durP2;ratioP2;P2;SDS_P1;SDS_P2;PMS_P1;PMS_P2;Temp;Humidity;BMP_temperature;BMP_pressure;BME280_temperature;BME280_humidity;BME280_pressure;Samples;Min_cycle;Max_cycle;Signal;HPM_P1;HPM_P2
2021/03/28 00:02:30;;;;;;;8.70;8.02;;;;;;;;;;5022309;28;20056;-42
2021/03/28 00:05:11;;;;;;;9.07;8.38;;;;;;;;;;5027499;28;20048;-43
2021/03/28 00:07:39;;;;;;;10.85;9.93;;;;;;;;;;5029603;28;20065;-44
2021/03/28 00:10:07;;;;;;;11.68;10.38;;;;;;;;;;5021172;28;20069;-43
2021/03/28 00:12:36;;;;;;;9.45;8.50;;;;;;;;;;5030899;28;20037;-45
2021/03/28 00:15:09;;;;;;;10.38;9.00;;;;;;;;;;5023118;28;20103;-44
2021/03/28 00:17:39;;;;;;;8.93;8.23;;;;;;;;;;5026410;28;20046;-44
2021/03/28 00:20:12;;;;;;;9.10;7.80;;;;;;;;;;5022480;28;20069;-44
2021/03/28 00:22:47;;;;;;;9.55;8.40;;;;;;;;;;5019603;28;20042;-42
2021/03/28 00:25:16;;;;;;;7.60;7.13;;;;;;;;;;5021301;28;20508;-43
2021/03/28 00:27:45;;;;;;;8.25;7.68;;;;;;;;;;5026499;28;20041;-43
2021/03/28 00:30:15;;;;;;;8.55;7.97;;;;;;;;;;5024000;28;20030;-43
2021/03/28 00:32:46;;;;;;;10.57;8.05;;;;;;;;;;5013963;28;20065;-45
2021/03/28 00:35:14;;;;;;;8.27;7.88;;;;;;;;;;5017482;28;20121;-42
2021/03/28 00:37:42;;;;;;;8.15;7.65;;;;;;;;;;5021942;28;20041;-44
2021/03/28 00:40:08;;;;;;;7.53;7.13;;;;;;;;;;5023479;28;20437;-43
2021/03/28 00:42:34;;;;;;;7.80;7.20;;;;;;;;;;5023028;28;20033;-42
2021/03/28 00:45:17;;;;;;;8.43;7.95;;;;;;;;;;5027208;28;20525;-45
2021/03/28 00:47:47;;;;;;;8.90;8.18;;;;;;;;;;5026146;28;20037;-42
2021/03/28 00:50:22;;;;;;;7.20;6.90;;;;;;;;;;5023777;28;20144;-44
2021/03/28 00:52:54;;;;;;;7.60;7.10;;;;;;;;;;5030574;28;20095;-44
2021/03/28 00:55:24;;;;;;;7.57;7.38;;;;;;;;;;5025322;28;20041;-45
2021/03/28 00:58:09;;;;;;;7.10;6.65;;;;;;;;;;5024503;28;20234;-42
2021/03/28 01:00:50;;;;;;;7.68;7.18;;;;;;;;;;5023128;28;20049;-45
2021/03/28 01:03:37;;;;;;;6.60;6.25;;;;;;;;;;5023535;28;20025;-42
2021/03/28 01:06:22;;;;;;;6.70;6.20;;;;;;;;;;5022425;28;20508;-43
2021/03/28 01:08:54;;;;;;;7.85;7.35;;;;;;;;;;5029259;28;20045;-42
2021/03/28 01:11:39;;;;;;;8.30;7.50;;;;;;;;;;5021219;28;20065;-43
2021/03/28 01:14:18;;;;;;;8.75;8.00;;;;;;;;;;5023350;28;20033;-45
2021/03/28 01:17:03;;;;;;;9.05;8.20;;;;;;;;;;5017342;28;20356;-43
2021/03/28 01:19:59;;;;;;;8.43;7.75;;;;;;;;;;5022686;28;20037;-45
2021/03/28 01:22:25;;;;;;;8.63;8.10;;;;;;;;;;4998136;28;20044;-43
2021/03/28 01:24:51;;;;;;;9.68;8.82;;;;;;;;;;5028951;28;20069;-46
2021/03/28 01:27:36;;;;;;;9.48;9.10;;;;;;;;;;5023169;28;20429;-43
2021/03/28 01:30:14;;;;;;;9.07;8.38;;;;;;;;;;5023191;28;20057;-43
2021/03/28 01:32:44;;;;;;;8.65;8.20;;;;;;;;;;5012473;28;20054;-43
2021/03/28 01:35:22;;;;;;;9.93;9.43;;;;;;;;;;5023817;28;20038;-42
2021/03/28 01:37:48;;;;;;;8.45;7.75;;;;;;;;;;5028587;28;20045;-42
2021/03/28 01:40:33;;;;;;;7.55;7.13;;;;;;;;;;5030071;28;20040;-43
2021/03/28 01:43:00;;;;;;;7.93;7.38;;;;;;;;;;5025333;28;20697;-43
2021/03/28 01:45:29;;;;;;;7.75;7.07;;;;;;;;;;5024154;28;20072;-44
2021/03/28 01:48:01;;;;;;;7.43;6.88;;;;;;;;;;5027678;28;20037;-43
2021/03/28 01:50:30;;;;;;;7.33;6.97;;;;;;;;;;5028870;28;20385;-44
2021/03/28 01:53:15;;;;;;;8.02;7.72;;;;;;;;;;5031790;28;20658;-43
2021/03/28 01:55:59;;;;;;;7.30;6.82;;;;;;;;;;5026744;28;20053;-45
2021/03/28 01:58:32;;;;;;;8.40;7.57;;;;;;;;;;5024391;28;20030;-43
2021/03/28 02:01:17;;;;;;;7.70;7.23;;;;;;;;;;5023921;28;20034;-44
2021/03/28 02:03:49;;;;;;;11.18;10.25;;;;;;;;;;5023857;28;20296;-43
2021/03/28 02:06:34;;;;;;;9.75;9.25;;;;;;;;;;5028338;28;20037;-43
2021/03/28 02:09:06;;;;;;;9.77;9.18;;;;;;;;;;5030063;28;20041;-43
2021/03/28 02:11:58;;;;;;;8.82;8.10;;;;;;;;;;5022158;28;20030;-43
2021/03/28 02:14:40;;;;;;;7.55;7.05;;;;;;;;;;5028537;28;20029;-44
2021/03/28 02:17:16;;;;;;;7.68;7.10;;;;;;;;;;5031766;28;20033;-45
2021/03/28 02:20:09;;;;;;;8.18;7.68;;;;;;;;;;5025395;28;20032;-42
2021/03/28 02:22:48;;;;;;;7.55;7.05;;;;;;;;;;5025819;28;20391;-43
2021/03/28 02:25:17;;;;;;;8.73;8.02;;;;;;;;;;5028301;28;20037;-43
2021/03/28 02:28:02;;;;;;;8.73;8.02;;;;;;;;;;5024662;28;20022;-42
2021/03/28 02:30:40;;;;;;;7.70;7.32;;;;;;;;;;5028982;28;20438;-43
2021/03/28 02:33:16;;;;;;;9.18;8.68;;;;;;;;;;5020349;28;20484;-44
2021/03/28 02:35:49;;;;;;;7.38;7.10;;;;;;;;;;5022855;28;20110;-43
2021/03/28 02:38:18;;;;;;;7.95;7.50;;;;;;;;;;5020108;28;20030;-45
2021/03/28 02:40:44;;;;;;;7.47;6.82;;;;;;;;;;5027890;28;20036;-43
2021/03/28 02:43:29;;;;;;;8.40;7.75;;;;;;;;;;5025753;28;20030;-43
2021/03/28 02:46:07;;;;;;;7.18;6.97;;;;;;;;;;5030670;28;20053;-43
2021/03/28 02:48:44;;;;;;;7.00;6.80;;;;;;;;;;5026814;28;20068;-43
2021/03/28 02:51:34;;;;;;;7.00;6.53;;;;;;;;;;5025748;28;20494;-44
2021/03/28 02:54:00;;;;;;;8.55;8.05;;;;;;;;;;5027505;28;20045;-43
2021/03/28 02:56:32;;;;;;;7.50;7.30;;;;;;;;;;5021792;28;20053;-44
2021/03/28 02:59:10;;;;;;;7.50;7.20;;;;;;;;;;5022132;28;20067;-45
2021/03/28 03:01:40;;;;;;;7.18;6.60;;;;;;;;;;5031333;28;20037;-44
2021/03/28 03:04:06;;;;;;;7.13;6.82;;;;;;;;;;5021436;28;20121;-42
2021/03/28 03:06:58;;;;;;;9.15;8.43;;;;;;;;;;5017220;28;20116;-44
2021/03/28 03:09:43;;;;;;;7.50;7.25;;;;;;;;;;5025992;28;20057;-43
2021/03/28 03:12:15;;;;;;;8.20;7.47;;;;;;;;;;5022969;28;20381;-43
2021/03/28 03:14:54;;;;;;;6.88;6.20;;;;;;;;;;5018111;28;20053;-43
2021/03/28 03:17:38;;;;;;;9.60;8.85;;;;;;;;;;5023212;28;20046;-44
2021/03/28 03:20:16;;;;;;;9.60;9.20;;;;;;;;;;5023540;28;20038;-43
2021/03/28 03:22:46;;;;;;;11.88;11.32;;;;;;;;;;5021595;28;20133;-43
2021/03/28 03:25:12;;;;;;;10.27;9.98;;;;;;;;;;5028828;28;20033;-43
2021/03/28 03:27:49;;;;;;;9.73;9.32;;;;;;;;;;5025171;28;20052;-46
2021/03/28 03:30:37;;;;;;;7.97;7.65;;;;;;;;;;5020909;28;20057;-42
2021/03/28 03:33:12;;;;;;;8.15;7.65;;;;;;;;;;5025695;28;20385;-42
2021/03/28 03:35:57;;;;;;;8.10;7.60;;;;;;;;;;5021857;28;20056;-44
2021/03/28 03:38:42;;;;;;;8.27;7.82;;;;;;;;;;5016368;28;20120;-47
2021/03/28 03:41:11;;;;;;;7.93;7.35;;;;;;;;;;5024278;28;20541;-43
2021/03/28 03:43:48;;;;;;;7.93;7.50;;;;;;;;;;5024279;28;20120;-43
2021/03/28 03:46:18;;;;;;;6.15;5.85;;;;;;;;;;5030255;28;20049;-43
2021/03/28 03:48:44;;;;;;;7.18;6.70;;;;;;;;;;5025333;28;20735;-42
2021/03/28 03:51:42;;;;;;;6.25;6.03;;;;;;;;;;5025227;28;20045;-45
2021/03/28 03:54:33;;;;;;;6.75;6.13;;;;;;;;;;5028800;28;20508;-43
2021/03/28 03:57:18;;;;;;;6.55;6.25;;;;;;;;;;5022761;28;20064;-43
2021/03/28 03:59:57;;;;;;;6.00;5.57;;;;;;;;;;5018997;28;20466;-43
2021/03/28 04:02:28;;;;;;;6.93;6.47;;;;;;;;;;5030856;28;20581;-43
2021/03/28 04:05:08;;;;;;;7.38;7.07;;;;;;;;;;5017416;28;20045;-45
2021/03/28 04:07:44;;;;;;;6.57;6.18;;;;;;;;;;5017207;28;20041;-42
2021/03/28 04:10:16;;;;;;;6.65;6.35;;;;;;;;;;5022018;28;20056;-45
2021/03/28 04:12:51;;;;;;;6.35;6.05;;;;;;;;;;5023981;28;20044;-42
2021/03/28 04:15:24;;;;;;;8.20;7.75;;;;;;;;;;5016735;28;20149;-44
2021/03/28 04:17:53;;;;;;;7.00;6.70;;;;;;;;;;5028366;28;20053;-43
2021/03/28 04:20:25;;;;;;;6.93;6.47;;;;;;;;;;5019383;28;20096;-44
2021/03/28 04:22:58;;;;;;;7.30;7.03;;;;;;;;;;5017316;28;20722;-43
2021/03/28 04:25:33;;;;;;;7.18;6.97;;;;;;;;;;5027555;28;20068;-43
2021/03/28 04:28:05;;;;;;;6.88;6.50;;;;;;;;;;5024605;28;20034;-43
2021/03/28 04:30:37;;;;;;;8.35;7.65;;;;;;;;;;5029421;28;20103;-44
2021/03/28 04:33:09;;;;;;;8.05;7.25;;;;;;;;;;5024842;28;20053;-42
2021/03/28 04:35:41;;;;;;;8.13;7.70;;;;;;;;;;5026336;28;20046;-43
2021/03/28 04:38:26;;;;;;;8.32;7.97;;;;;;;;;;5027166;28;20099;-43
2021/03/28 04:40:56;;;;;;;7.78;7.03;;;;;;;;;;5024075;28;20038;-43
2021/03/28 04:43:22;;;;;;;7.90;7.43;;;;;;;;;;5022482;28;20045;-42
2021/03/28 04:45:51;;;;;;;10.25;9.82;;;;;;;;;;5025636;28;20137;-44
2021/03/28 04:48:29;;;;;;;8.85;8.50;;;;;;;;;;5022041;28;20555;-42
2021/03/28 04:51:04;;;;;;;8.98;8.23;;;;;;;;;;5013161;28;20574;-46
2021/03/28 04:53:36;;;;;;;7.60;7.13;;;;;;;;;;5025845;28;20075;-43
2021/03/28 04:56:05;;;;;;;7.82;7.47;;;;;;;;;;5024467;28;20486;-45
2021/03/28 04:59:10;;;;;;;6.85;6.50;;;;;;;;;;5023663;28;20033;-44
2021/03/28 05:01:54;;;;;;;7.15;6.68;;;;;;;;;;5004520;28;20046;-42
2021/03/28 05:04:39;;;;;;;6.38;6.15;;;;;;;;;;5004886;28;20077;-45
2021/03/28 05:07:24;;;;;;;5.93;5.53;;;;;;;;;;5023017;28;20064;-44
2021/03/28 05:10:02;;;;;;;5.97;5.68;;;;;;;;;;5025966;28;20041;-44
2021/03/28 05:12:47;;;;;;;6.82;6.03;;;;;;;;;;5021631;28;20053;-42
2021/03/28 05:15:13;;;;;;;6.10;5.80;;;;;;;;;;5033021;28;20041;-45
2021/03/28 05:17:46;;;;;;;5.90;5.53;;;;;;;;;;5028342;28;20516;-43
2021/03/28 05:20:31;;;;;;;6.32;5.53;;;;;;;;;;5026669;28;20466;-45
2021/03/28 05:23:17;;;;;;;8.40;7.95;;;;;;;;;;5016642;28;20036;-43
2021/03/28 05:25:46;;;;;;;8.75;8.30;;;;;;;;;;5022295;28;20050;-43
2021/03/28 05:28:28;;;;;;;8.38;7.78;;;;;;;;;;5025560;28;20381;-42
2021/03/28 05:31:05;;;;;;;10.23;9.63;;;;;;;;;;5023904;28;20465;-43
2021/03/28 05:33:50;;;;;;;8.35;8.13;;;;;;;;;;5021608;28;20393;-42
2021/03/28 05:36:25;;;;;;;6.68;6.38;;;;;;;;;;5019542;28;20045;-44
2021/03/28 05:38:54;;;;;;;7.07;6.60;;;;;;;;;;5031617;28;20041;-45
2021/03/28 05:41:39;;;;;;;11.70;10.77;;;;;;;;;;5025105;28;20034;-42
2021/03/28 05:44:15;;;;;;;8.82;8.25;;;;;;;;;;5027978;28;20504;-44
2021/03/28 05:46:57;;;;;;;8.77;8.48;;;;;;;;;;5030877;28;20518;-43
2021/03/28 05:49:24;;;;;;;6.77;6.60;;;;;;;;;;5027429;28;20041;-43
2021/03/28 05:51:53;;;;;;;6.22;5.93;;;;;;;;;;5031455;28;20057;-42
2021/03/28 05:54:37;;;;;;;7.68;7.30;;;;;;;;;;5029782;28;20145;-44
2021/03/28 05:57:13;;;;;;;7.43;7.15;;;;;;;;;;5025985;28;20046;-45
2021/03/28 05:59:39;;;;;;;8.68;7.82;;;;;;;;;;5026573;28;20087;-43
2021/03/28 06:02:38;;;;;;;9.30;8.68;;;;;;;;;;5024117;28;20398;-43
2021/03/28 06:05:23;;;;;;;7.65;7.13;;;;;;;;;;5025642;28;20032;-43
2021/03/28 06:07:58;;;;;;;7.70;7.00;;;;;;;;;;5031236;28;20092;-46
2021/03/28 06:10:43;;;;;;;7.85;7.53;;;;;;;;;;5028828;28;20071;-45
2021/03/28 06:13:28;;;;;;;6.60;6.30;;;;;;;;;;5023923;28;20080;-43
2021/03/28 06:16:07;;;;;;;8.38;7.65;;;;;;;;;;5029442;28;20490;-42
2021/03/28 06:18:56;;;;;;;6.43;6.22;;;;;;;;;;5029449;28;20041;-43
2021/03/28 06:21:50;;;;;;;6.68;6.40;;;;;;;;;;5031810;28;20053;-43
2021/03/28 06:24:17;;;;;;;6.70;6.38;;;;;;;;;;5029739;28;20073;-45
2021/03/28 06:26:43;;;;;;;5.50;5.30;;;;;;;;;;5017620;28;20044;-43
2021/03/28 06:29:28;;;;;;;6.25;6.05;;;;;;;;;;5021296;28;20053;-45
2021/03/28 06:32:11;;;;;;;5.13;4.82;;;;;;;;;;5026379;28;20087;-43
2021/03/28 06:34:43;;;;;;;6.22;5.65;;;;;;;;;;5028304;28;20049;-44
2021/03/28 06:37:27;;;;;;;6.63;6.32;;;;;;;;;;5022949;28;20064;-42
2021/03/28 06:40:00;;;;;;;7.10;6.65;;;;;;;;;;5016014;28;20033;-44
2021/03/28 06:42:38;;;;;;;6.80;6.40;;;;;;;;;;5025012;28;20096;-43
2021/03/28 06:45:05;;;;;;;9.10;8.48;;;;;;;;;;5024155;28;20042;-43
2021/03/28 06:47:46;;;;;;;8.45;8.00;;;;;;;;;;5030295;28;20056;-42
2021/03/28 06:50:28;;;;;;;9.05;8.40;;;;;;;;;;5011942;28;20065;-43
2021/03/28 06:52:58;;;;;;;10.48;9.50;;;;;;;;;;5027907;28;20052;-42
2021/03/28 06:55:38;;;;;;;10.35;9.55;;;;;;;;;;5014023;28;20577;-43
2021/03/28 06:58:23;;;;;;;11.38;10.27;;;;;;;;;;5023861;28;20661;-43
2021/03/28 07:01:09;;;;;;;8.55;8.07;;;;;;;;;;5005500;28;20050;-42
2021/03/28 07:03:53;;;;;;;10.05;9.55;;;;;;;;;;5032293;28;20044;-43
2021/03/28 07:06:32;;;;;;;8.73;8.23;;;;;;;;;;5023831;28;20033;-42
2021/03/28 07:09:17;;;;;;;14.68;12.95;;;;;;;;;;5027572;28;20045;-47
2021/03/28 07:12:02;;;;;;;43.60;29.60;;;;;;;;;;5030059;28;20156;-41
2021/03/28 07:14:49;;;;;;;12.52;11.50;;;;;;;;;;5014086;28;20041;-44
2021/03/28 07:17:15;;;;;;;5.93;5.72;;;;;;;;;;5024148;28;20049;-44
2021/03/28 07:19:57;;;;;;;7.20;6.68;;;;;;;;;;5027577;28;20042;-42
2021/03/28 07:22:47;;;;;;;6.47;6.20;;;;;;;;;;5018659;28;20042;-42
2021/03/28 07:25:23;;;;;;;7.22;6.80;;;;;;;;;;5018484;28;20038;-43
2021/03/28 07:28:25;;;;;;;6.68;6.25;;;;;;;;;;5029510;28;20500;-43
2021/03/28 07:31:11;;;;;;;8.00;6.57;;;;;;;;;;5022917;28;20053;-43
2021/03/28 07:33:56;;;;;;;6.40;5.90;;;;;;;;;;5015632;28;20057;-42
2021/03/28 07:36:43;;;;;;;7.20;6.53;;;;;;;;;;5014490;28;20053;-42
2021/03/28 07:39:27;;;;;;;6.22;5.65;;;;;;;;;;5025254;28;20103;-42
2021/03/28 07:42:03;;;;;;;5.38;4.95;;;;;;;;;;5021895;28;20041;-42
2021/03/28 07:44:35;;;;;;;5.10;4.75;;;;;;;;;;5030367;28;20570;-43
2021/03/28 07:47:17;;;;;;;5.30;5.00;;;;;;;;;;5018271;28;20132;-42
2021/03/28 07:49:52;;;;;;;9.57;5.28;;;;;;;;;;5025445;28;20092;-44
2021/03/28 07:52:37;;;;;;;5.15;4.72;;;;;;;;;;5030467;28;20037;-43
2021/03/28 07:55:22;;;;;;;5.20;4.80;;;;;;;;;;5036990;28;20046;-43
2021/03/28 07:58:07;;;;;;;4.40;4.18;;;;;;;;;;5017261;28;20121;-44
2021/03/28 08:00:42;;;;;;;7.43;5.03;;;;;;;;;;5018658;28;20497;-42
2021/03/28 08:03:28;;;;;;;5.05;4.78;;;;;;;;;;5010597;28;20050;-44
2021/03/28 08:06:04;;;;;;;5.82;5.63;;;;;;;;;;5024267;28;20042;-43
2021/03/28 08:08:42;;;;;;;7.60;5.60;;;;;;;;;;4997731;28;20052;-44
2021/03/28 08:11:17;;;;;;;5.85;5.45;;;;;;;;;;5022871;28;20041;-43
2021/03/28 08:13:56;;;;;;;5.60;5.18;;;;;;;;;;5025608;28;20536;-43
2021/03/28 08:16:32;;;;;;;5.07;4.55;;;;;;;;;;5029617;28;20045;-42
2021/03/28 08:19:01;;;;;;;4.57;4.35;;;;;;;;;;5020693;28;20048;-43
2021/03/28 08:21:32;;;;;;;4.40;3.35;;;;;;;;;;5008287;28;20034;-43
2021/03/28 08:24:18;;;;;;;3.22;2.72;;;;;;;;;;5010154;28;20069;-42
2021/03/28 08:26:54;;;;;;;2.67;2.58;;;;;;;;;;5022419;28;20039;-44
2021/03/28 08:29:27;;;;;;;3.63;2.30;;;;;;;;;;5026974;28;20124;-43
2021/03/28 08:31:57;;;;;;;1.90;1.80;;;;;;;;;;5012694;28;20056;-43
2021/03/28 08:34:30;;;;;;;2.65;2.50;;;;;;;;;;5010119;28;20129;-42
2021/03/28 08:37:15;;;;;;;2.30;2.10;;;;;;;;;;5026208;28;20056;-42
2021/03/28 08:39:43;;;;;;;2.75;2.55;;;;;;;;;;5012929;28;20124;-42
2021/03/28 08:42:13;;;;;;;1.95;1.95;;;;;;;;;;5008684;28;20056;-42
2021/03/28 08:44:57;;;;;;;2.20;2.00;;;;;;;;;;5028799;28;20029;-45
2021/03/28 08:47:37;;;;;;;2.22;2.20;;;;;;;;;;5023040;28;20485;-47
2021/03/28 08:50:20;;;;;;;1.67;1.67;;;;;;;;;;5022655;28;20045;-45
2021/03/28 08:52:47;;;;;;;3.08;1.40;;;;;;;;;;5029895;28;20131;-43
2021/03/28 08:55:32;;;;;;;1.80;1.70;;;;;;;;;;5005683;28;20095;-42
2021/03/28 08:58:04;;;;;;;2.42;1.73;;;;;;;;;;5024804;28;20033;-43
2021/03/28 09:00:38;;;;;;;2.42;2.33;;;;;;;;;;5024301;28;20456;-45
2021/03/28 09:03:11;;;;;;;3.97;1.38;;;;;;;;;;5022953;28;20034;-46
2021/03/28 09:05:46;;;;;;;2.55;1.98;;;;;;;;;;5028119;28;20037;-45
2021/03/28 09:08:18;;;;;;;2.10;2.00;;;;;;;;;;5012177;28;20050;-42
2021/03/28 09:10:57;;;;;;;2.85;1.55;;;;;;;;;;5007569;28;20073;-43
2021/03/28 09:13:30;;;;;;;3.22;1.70;;;;;;;;;;5027635;28;20034;-43
2021/03/28 09:16:09;;;;;;;1.45;1.40;;;;;;;;;;5008952;28;20056;-43
2021/03/28 09:18:43;;;;;;;2.22;1.65;;;;;;;;;;5019101;28;20129;-42
2021/03/28 09:21:20;;;;;;;1.52;1.30;;;;;;;;;;5022323;28;20038;-42
2021/03/28 09:24:06;;;;;;;2.38;1.40;;;;;;;;;;5014907;28;20412;-42
2021/03/28 09:26:35;;;;;;;2.55;1.63;;;;;;;;;;5003335;28;20670;-44
2021/03/28 09:29:33;;;;;;;2.65;1.42;;;;;;;;;;5029431;28;20072;-43
2021/03/28 09:32:09;;;;;;;1.73;1.63;;;;;;;;;;5025113;28;20053;-42
2021/03/28 09:34:48;;;;;;;1.30;1.20;;;;;;;;;;5022949;28;20136;-42
2021/03/28 09:37:34;;;;;;;1.88;1.23;;;;;;;;;;5017908;28;20457;-43
2021/03/28 09:40:11;;;;;;;2.13;2.00;;;;;;;;;;5039553;28;20466;-44
2021/03/28 09:42:57;;;;;;;1.20;1.20;;;;;;;;;;5022393;28;20049;-44
2021/03/28 09:45:30;;;;;;;1.90;1.25;;;;;;;;;;4994811;28;20044;-44
2021/03/28 09:48:11;;;;;;;1.30;1.20;;;;;;;;;;5005390;28;20038;-44
2021/03/28 09:50:50;;;;;;;1.35;1.10;;;;;;;;;;5002330;28;20585;-45
2021/03/28 09:53:20;;;;;;;1.45;1.35;;;;;;;;;;5009712;28;20054;-42
2021/03/28 09:56:17;;;;;;;1.10;1.10;;;;;;;;;;5032373;28;20072;-42
2021/03/28 09:59:05;;;;;;;1.13;1.13;;;;;;;;;;4987637;28;20096;-44
2021/03/28 10:01:38;;;;;;;1.85;1.05;;;;;;;;;;5011382;28;20041;-47
2021/03/28 10:04:11;;;;;;;1.65;1.13;;;;;;;;;;5021390;28;20072;-46
2021/03/28 10:06:37;;;;;;;2.20;0.90;;;;;;;;;;5027307;28;20646;-44
2021/03/28 10:09:10;;;;;;;1.60;0.90;;;;;;;;;;5015684;28;20362;-45
2021/03/28 10:11:42;;;;;;;2.63;1.15;;;;;;;;;;5021633;28;20053;-42
2021/03/28 10:14:14;;;;;;;0.90;0.90;;;;;;;;;;5024062;28;20037;-42
2021/03/28 10:16:59;;;;;;;2.95;1.33;;;;;;;;;;5028015;28;20115;-45
2021/03/28 10:19:34;;;;;;;5.20;1.35;;;;;;;;;;5022858;28;20095;-42
2021/03/28 10:22:08;;;;;;;1.20;1.00;;;;;;;;;;5026339;28;20052;-42
2021/03/28 10:24:41;;;;;;;2.15;0.90;;;;;;;;;;5027586;28;20129;-42
2021/03/28 10:27:33;;;;;;;2.65;0.90;;;;;;;;;;5024659;28;20037;-42
2021/03/28 10:30:08;;;;;;;2.15;0.90;;;;;;;;;;5014058;28;20042;-42
2021/03/28 10:32:39;;;;;;;2.25;0.90;;;;;;;;;;5028101;28;20060;-43
2021/03/28 10:35:32;;;;;;;0.90;0.90;;;;;;;;;;5021054;28;20482;-42
2021/03/28 10:38:17;;;;;;;0.90;0.90;;;;;;;;;;5018267;28;20515;-44
2021/03/28 10:40:45;;;;;;;1.05;0.95;;;;;;;;;;5028601;28;20128;-43
2021/03/28 10:43:21;;;;;;;3.08;1.00;;;;;;;;;;5011130;28;20045;-42
2021/03/28 10:46:00;;;;;;;2.67;1.00;;;;;;;;;;5015254;28;20049;-40
2021/03/28 10:48:39;;;;;;;1.00;1.00;;;;;;;;;;5030046;28;20049;-41
2021/03/28 10:51:15;;;;;;;1.70;1.10;;;;;;;;;;5021910;28;20042;-43
2021/03/28 10:53:59;;;;;;;1.00;0.90;;;;;;;;;;5030417;28;20048;-41
2021/03/28 10:56:58;;;;;;;0.98;0.90;;;;;;;;;;5026430;28;20047;-41
2021/03/28 10:59:43;;;;;;;1.13;0.90;;;;;;;;;;5025101;28;20116;-42
2021/03/28 11:02:13;;;;;;;1.25;0.90;;;;;;;;;;5045561;28;20355;-41
2021/03/28 11:04:42;;;;;;;1.65;1.10;;;;;;;;;;5013086;28;20045;-42
2021/03/28 11:07:40;;;;;;;2.22;1.00;;;;;;;;;;5027177;28;20087;-42
2021/03/28 11:10:10;;;;;;;2.53;1.13;;;;;;;;;;5022632;28;20540;-42
2021/03/28 11:12:51;;;;;;;1.10;0.98;;;;;;;;;;5026301;28;20393;-40
2021/03/28 11:15:26;;;;;;;1.13;0.90;;;;;;;;;;5039067;28;20041;-44
2021/03/28 11:18:04;;;;;;;1.15;0.80;;;;;;;;;;5032107;28;20037;-41
2021/03/28 11:20:43;;;;;;;1.85;0.88;;;;;;;;;;5025829;28;20050;-40
2021/03/28 11:23:24;;;;;;;4.00;1.10;;;;;;;;;;5011148;28;20037;-41
2021/03/28 11:25:57;;;;;;;2.63;0.90;;;;;;;;;;5029922;28;20112;-41
2021/03/28 11:28:24;;;;;;;1.38;0.93;;;;;;;;;;5023980;28;20041;-41
2021/03/28 11:31:07;;;;;;;2.30;1.40;;;;;;;;;;5029639;28;20043;-42
2021/03/28 11:33:36;;;;;;;2.20;1.00;;;;;;;;;;5028112;28;20046;-42
2021/03/28 11:36:12;;;;;;;1.33;0.90;;;;;;;;;;5024228;28;20073;-41
2021/03/28 11:38:42;;;;;;;1.58;0.80;;;;;;;;;;5028732;28;20046;-43
2021/03/28 11:41:11;;;;;;;3.13;0.93;;;;;;;;;;5027094;28;20434;-41
2021/03/28 11:43:40;;;;;;;2.25;0.80;;;;;;;;;;5024402;28;20465;-43
2021/03/28 11:46:15;;;;;;;2.78;0.90;;;;;;;;;;5030217;28;20095;-41
2021/03/28 11:49:02;;;;;;;2.25;1.02;;;;;;;;;;5021791;28;20553;-41
2021/03/28 11:51:31;;;;;;;5.68;0.90;;;;;;;;;;5027579;28;20057;-41
2021/03/28 11:54:04;;;;;;;4.22;1.00;;;;;;;;;;5017821;28;20046;-43
2021/03/28 11:56:37;;;;;;;1.67;1.00;;;;;;;;;;5023948;28;20069;-41
2021/03/28 11:59:08;;;;;;;3.97;0.98;;;;;;;;;;5029333;28;20128;-43
2021/03/28 12:01:53;;;;;;;1.25;1.10;;;;;;;;;;5029181;28;20041;-43
2021/03/28 12:04:28;;;;;;;3.20;0.90;;;;;;;;;;5020143;28;20041;-42
2021/03/28 12:06:57;;;;;;;0.82;0.80;;;;;;;;;;5021389;28;20131;-41
2021/03/28 12:09:28;;;;;;;3.25;0.95;;;;;;;;;;5026595;28;20045;-43
2021/03/28 12:11:56;;;;;;;1.42;1.05;;;;;;;;;;5024527;28;20065;-42
2021/03/28 12:14:26;;;;;;;1.13;0.90;;;;;;;;;;5029627;28;20607;-44
2021/03/28 12:17:11;;;;;;;3.05;1.23;;;;;;;;;;5023646;28;20087;-42
2021/03/28 12:19:57;;;;;;;1.35;0.95;;;;;;;;;;5007536;28;20470;-41
2021/03/28 12:22:27;;;;;;;2.00;1.00;;;;;;;;;;5015903;28;20044;-45
2021/03/28 12:25:17;;;;;;;2.03;1.10;;;;;;;;;;5023626;28;20059;-42
2021/03/28 12:27:49;;;;;;;3.63;0.90;;;;;;;;;;5024721;28;20422;-42
2021/03/28 12:30:42;;;;;;;4.90;0.95;;;;;;;;;;5028548;28;20061;-43
2021/03/28 12:33:19;;;;;;;1.25;0.80;;;;;;;;;;5041174;28;20443;-44
2021/03/28 12:35:49;;;;;;;1.58;0.90;;;;;;;;;;5021283;28;20052;-44
2021/03/28 12:38:21;;;;;;;1.42;0.90;;;;;;;;;;5029289;28;20029;-46
2021/03/28 12:40:48;;;;;;;1.30;1.20;;;;;;;;;;5023431;28;20029;-45
2021/03/28 12:43:41;;;;;;;1.08;1.00;;;;;;;;;;5025896;28;20038;-44
2021/03/28 12:46:39;;;;;;;0.80;0.80;;;;;;;;;;5026072;28;20045;-45
2021/03/28 12:49:08;;;;;;;2.15;0.90;;;;;;;;;;5024146;28;20048;-45
2021/03/28 12:51:35;;;;;;;1.38;0.98;;;;;;;;;;5025952;28;20452;-44
2021/03/28 12:54:13;;;;;;;2.10;0.85;;;;;;;;;;5026565;28;20045;-43
2021/03/28 12:56:46;;;;;;;3.80;0.90;;;;;;;;;;5023069;28;20045;-45
2021/03/28 12:59:31;;;;;;;2.97;0.90;;;;;;;;;;5029814;28;20057;-44
2021/03/28 13:02:11;;;;;;;1.05;0.80;;;;;;;;;;5026070;28;20132;-43
2021/03/28 13:04:38;;;;;;;2.28;0.80;;;;;;;;;;5022967;28;20034;-43
2021/03/28 13:07:04;;;;;;;2.15;0.80;;;;;;;;;;5029460;28;20670;-43
2021/03/28 13:09:33;;;;;;;3.88;0.80;;;;;;;;;;5023822;28;20046;-45
2021/03/28 13:12:08;;;;;;;1.10;0.85;;;;;;;;;;5024467;28;20041;-46
2021/03/28 13:14:39;;;;;;;2.78;0.88;;;;;;;;;;5028360;28;20037;-45
2021/03/28 13:17:05;;;;;;;2.92;0.80;;;;;;;;;;5023287;28;20046;-45
2021/03/28 13:19:34;;;;;;;5.40;0.90;;;;;;;;;;5028407;28;20605;-45
2021/03/28 13:22:03;;;;;;;3.10;0.90;;;;;;;;;;5025506;28;20033;-41
2021/03/28 13:24:30;;;;;;;1.95;0.80;;;;;;;;;;5021294;28;20092;-46
2021/03/28 13:27:03;;;;;;;3.72;0.80;;;;;;;;;;5030036;28;20120;-44
2021/03/28 13:29:36;;;;;;;5.45;0.90;;;;;;;;;;5022243;28;20060;-42
2021/03/28 13:32:04;;;;;;;4.53;0.80;;;;;;;;;;5026378;28;20470;-44
2021/03/28 13:34:33;;;;;;;1.90;0.80;;;;;;;;;;5029453;28;20505;-44
2021/03/28 13:37:11;;;;;;;2.22;1.00;;;;;;;;;;5023712;28;20038;-46
2021/03/28 13:39:56;;;;;;;1.15;0.80;;;;;;;;;;5032773;28;20030;-45
2021/03/28 13:42:24;;;;;;;1.10;0.80;;;;;;;;;;5029875;28;20049;-43
2021/03/28 13:44:55;;;;;;;1.00;1.00;;;;;;;;;;5025545;28;20060;-43
2021/03/28 13:47:40;;;;;;;3.70;0.88;;;;;;;;;;5033217;28;20545;-42
2021/03/28 13:50:18;;;;;;;2.08;1.00;;;;;;;;;;5028647;28;20049;-44
2021/03/28 13:52:44;;;;;;;4.13;0.90;;;;;;;;;;5026187;28;20041;-45
2021/03/28 13:55:29;;;;;;;5.50;0.80;;;;;;;;;;5026664;28;20145;-46
2021/03/28 13:57:55;;;;;;;0.80;0.80;;;;;;;;;;5027846;28;20041;-42
2021/03/28 14:00:27;;;;;;;6.50;0.90;;;;;;;;;;5028652;28;20042;-42
2021/03/28 14:02:55;;;;;;;2.55;1.00;;;;;;;;;;5031583;28;20056;-44
2021/03/28 14:05:23;;;;;;;1.15;0.90;;;;;;;;;;5023396;28;20124;-41
2021/03/28 14:07:53;;;;;;;3.88;0.90;;;;;;;;;;5027865;28;20125;-42
2021/03/28 14:10:43;;;;;;;1.98;0.80;;;;;;;;;;5028281;28;20045;-41
2021/03/28 14:13:21;;;;;;;1.95;0.80;;;;;;;;;;5024739;28;20130;-41
2021/03/28 14:15:47;;;;;;;2.53;1.08;;;;;;;;;;5032323;28;20037;-43
2021/03/28 14:18:20;;;;;;;3.92;0.80;;;;;;;;;;5027473;28;20041;-42
2021/03/28 14:20:46;;;;;;;;;;;;;;;;;;5026751;28;20046;-41
2021/03/28 14:23:15;;;;;;;1.02;0.70;;;;;;;;;;5032425;28;20476;-45
2021/03/28 14:25:41;;;;;;;2.58;0.80;;;;;;;;;;5025867;28;20087;-41
2021/03/28 14:28:26;;;;;;;4.45;0.95;;;;;;;;;;5017720;28;20033;-40
2021/03/28 14:31:04;;;;;;;1.58;0.80;;;;;;;;;;5028366;28;20115;-41
2021/03/28 14:33:48;;;;;;;1.33;0.80;;;;;;;;;;5025534;28;20128;-44
2021/03/28 14:36:27;;;;;;;1.08;0.80;;;;;;;;;;5031607;28;20128;-44
2021/03/28 14:39:15;;;;;;;2.17;0.70;;;;;;;;;;5029706;28;20425;-42
2021/03/28 14:41:45;;;;;;;2.83;0.80;;;;;;;;;;5026173;28;20445;-41
2021/03/28 14:44:15;;;;;;;4.38;0.88;;;;;;;;;;5030094;28;20508;-42
2021/03/28 14:46:48;;;;;;;1.65;1.00;;;;;;;;;;5027499;28;20085;-41
2021/03/28 14:49:53;;;;;;;0.98;0.95;;;;;;;;;;5026697;28;20057;-42
2021/03/28 14:52:25;;;;;;;0.70;0.70;;;;;;;;;;4978783;28;20054;-41
2021/03/28 14:54:58;;;;;;;1.55;0.80;;;;;;;;;;4990388;28;20042;-40
2021/03/28 14:57:47;;;;;;;1.25;1.10;;;;;;;;;;5002873;28;20068;-42
2021/03/28 15:00:17;;;;;;;2.38;0.95;;;;;;;;;;5022166;28;20132;-41
2021/03/28 15:02:46;;;;;;;2.53;1.42;;;;;;;;;;5024769;28;20033;-42
2021/03/28 15:05:31;;;;;;;1.73;0.80;;;;;;;;;;5027499;28;20095;-41
2021/03/28 15:07:57;;;;;;;1.35;0.80;;;;;;;;;;5028901;28;20037;-42
2021/03/28 15:10:30;;;;;;;3.63;1.50;;;;;;;;;;5020743;28;20034;-41
2021/03/28 15:12:56;;;;;;;;;;;;;;;;;;5028313;28;20050;-41
2021/03/28 15:15:28;;;;;;;1.05;0.95;;;;;;;;;;5029224;28;20373;-43
2021/03/28 15:18:19;;;;;;;3.08;0.90;;;;;;;;;;5025606;28;20116;-43
2021/03/28 15:20:52;;;;;;;1.88;0.80;;;;;;;;;;5022149;28;20486;-41
2021/03/28 15:23:19;;;;;;;2.17;0.77;;;;;;;;;;5027942;28;20034;-42
2021/03/28 15:25:52;;;;;;;2.25;0.80;;;;;;;;;;5021083;28;20042;-43
2021/03/28 15:28:26;;;;;;;2.65;0.90;;;;;;;;;;5031766;28;20044;-41
2021/03/28 15:31:05;;;;;;;0.98;0.73;;;;;;;;;;5021544;28;20087;-43
2021/03/28 15:33:50;;;;;;;1.70;0.82;;;;;;;;;;5029086;28;20704;-43
2021/03/28 15:36:27;;;;;;;2.05;1.10;;;;;;;;;;5025934;28;20490;-41
2021/03/28 15:38:56;;;;;;;0.95;0.80;;;;;;;;;;5024459;28;20048;-41
2021/03/28 15:41:41;;;;;;;2.58;0.80;;;;;;;;;;5029189;28;20038;-42